WMSA/SZB METAR and TAF weather

Enter ICAO airport designator
Station Type Date Time Source
WMSA METAR 2021/03/05 19:00 UTC NOAA

WMSA 051900Z 12006KT 070V170 6000 -TSRA FEW017CB 27/25 Q1011


Station Type Date Time Source
WMSA Decoded METAR 2021/03/05 19:00 UTC NOAA

Subang/Sultan Abdul Aziz Shah Airport, Malaysia (WMSA) 03-07N 101-32E
Mar 05, 2021 - 02:00 PM EST / 2021.03.05 1900 UTC
Wind: from the ESE (120 degrees) at 7 MPH (6 KT) (direction variable):0
Visibility: 3 mile(s):0
Sky conditions: mostly clear
Weather: light rain with thunder; Cumulonimbus clouds observed
Temperature: 80 F (27 C)
Dew Point: 77 F (25 C)
Relative Humidity: 88%
Pressure (altimeter): 29.85 in. Hg (1011 hPa)
ob: WMSA 051900Z 12006KT 070V170 6000 -TSRA FEW017CB 27/25 Q1011
cycle: 19

Station Type Date Time Source
WMSA TAF 2021/03/05 18:49 UTC NOAA

TAF
AMD WMSA 051828Z 0518/0618 VRB02KT 9999 FEW026
TEMPO 0518/0521 6000 -TSRA FEW017CB SCT020
TEMPO 0610/0614 28010KT 4000 TSRA FEW016CB SCT018

Example: see airport list